sensor_id;sensor_type;location;lat;lon;timestamp;pressure;altitude;pressure_sealevel;temperature;humidity
70916;BME280;58557;50.982;-3.222;2023-10-19T00:00:03;97781.31;;;17.59;63.27
70916;BME280;58557;50.982;-3.222;2023-10-19T00:02:28;97779.92;;;18.20;63.33
70916;BME280;58557;50.982;-3.222;2023-10-19T00:04:54;97777.14;;;18.02;62.84
70916;BME280;58557;50.982;-3.222;2023-10-19T00:07:20;97769.77;;;18.83;61.18
70916;BME280;58557;50.982;-3.222;2023-10-19T00:09:45;97774.52;;;17.93;64.81
70916;BME280;58557;50.982;-3.222;2023-10-19T00:12:11;97764.36;;;18.50;63.43
70916;BME280;58557;50.982;-3.222;2023-10-19T00:14:37;97761.13;;;17.29;68.07
70916;BME280;58557;50.982;-3.222;2023-10-19T00:17:03;97757.55;;;17.89;67.21
70916;BME280;58557;50.982;-3.222;2023-10-19T00:19:28;97758.29;;;17.33;69.11
70916;BME280;58557;50.982;-3.222;2023-10-19T00:21:54;97751.35;;;17.44;68.60
70916;BME280;58557;50.982;-3.222;2023-10-19T00:24:19;97750.23;;;17.23;69.67
70916;BME280;58557;50.982;-3.222;2023-10-19T00:26:45;97748.12;;;18.06;67.42
70916;BME280;58557;50.982;-3.222;2023-10-19T00:29:10;97744.84;;;18.19;66.59
70916;BME280;58557;50.982;-3.222;2023-10-19T00:31:36;97740.50;;;18.59;65.39
70916;BME280;58557;50.982;-3.222;2023-10-19T00:34:02;97736.53;;;18.05;66.45
70916;BME280;58557;50.982;-3.222;2023-10-19T00:36:27;97738.99;;;18.95;65.93
70916;BME280;58557;50.982;-3.222;2023-10-19T00:38:53;97729.66;;;19.10;65.68
70916;BME280;58557;50.982;-3.222;2023-10-19T00:41:22;97725.17;;;19.02;65.65
70916;BME280;58557;50.982;-3.222;2023-10-19T00:43:44;97717.70;;;18.59;66.44
70916;BME280;58557;50.982;-3.222;2023-10-19T00:46:10;97712.37;;;18.23;67.51
70916;BME280;58557;50.982;-3.222;2023-10-19T00:48:36;97717.82;;;18.71;67.12
70916;BME280;58557;50.982;-3.222;2023-10-19T00:51:02;97719.79;;;18.31;67.96
70916;BME280;58557;50.982;-3.222;2023-10-19T00:53:27;97719.69;;;18.72;67.89
70916;BME280;58557;50.982;-3.222;2023-10-19T00:55:53;97717.48;;;18.92;67.29
70916;BME280;58557;50.982;-3.222;2023-10-19T00:58:18;97707.98;;;18.06;68.39
70916;BME280;58557;50.982;-3.222;2023-10-19T01:00:44;97705.03;;;18.47;67.94
70916;BME280;58557;50.982;-3.222;2023-10-19T01:03:11;97698.89;;;18.44;67.85
70916;BME280;58557;50.982;-3.222;2023-10-19T01:05:35;97688.47;;;18.01;69.57
70916;BME280;58557;50.982;-3.222;2023-10-19T01:08:01;97686.83;;;17.49;72.13
70916;BME280;58557;50.982;-3.222;2023-10-19T01:10:26;97687.24;;;17.52;71.66
70916;BME280;58557;50.982;-3.222;2023-10-19T01:12:52;97680.50;;;18.78;68.03
70916;BME280;58557;50.982;-3.222;2023-10-19T01:15:19;97675.72;;;17.87;70.86
70916;BME280;58557;50.982;-3.222;2023-10-19T01:17:45;97680.34;;;17.40;73.44
70916;BME280;58557;50.982;-3.222;2023-10-19T01:20:10;97672.95;;;18.00;72.10
70916;BME280;58557;50.982;-3.222;2023-10-19T01:22:34;97676.74;;;17.78;74.39
70916;BME280;58557;50.982;-3.222;2023-10-19T01:25:03;97672.40;;;17.63;74.30
70916;BME280;58557;50.982;-3.222;2023-10-19T01:27:25;97671.19;;;16.86;77.75
70916;BME280;58557;50.982;-3.222;2023-10-19T01:29:51;97665.11;;;17.74;75.64
70916;BME280;58557;50.982;-3.222;2023-10-19T01:32:16;97670.26;;;16.92;77.20
70916;BME280;58557;50.982;-3.222;2023-10-19T01:34:41;97665.46;;;17.64;76.64
70916;BME280;58557;50.982;-3.222;2023-10-19T01:37:07;97657.71;;;17.39;76.68
70916;BME280;58557;50.982;-3.222;2023-10-19T01:39:33;97653.77;;;17.06;78.42
70916;BME280;58557;50.982;-3.222;2023-10-19T01:41:58;97642.68;;;16.51;80.52
70916;BME280;58557;50.982;-3.222;2023-10-19T01:44:23;97642.37;;;17.53;77.40
70916;BME280;58557;50.982;-3.222;2023-10-19T01:46:49;97635.42;;;17.52;75.97
70916;BME280;58557;50.982;-3.222;2023-10-19T01:49:14;97635.33;;;17.26;75.63
70916;BME280;58557;50.982;-3.222;2023-10-19T01:51:39;97627.67;;;17.58;76.23
70916;BME280;58557;50.982;-3.222;2023-10-19T01:54:06;97622.12;;;18.00;73.77
70916;BME280;58557;50.982;-3.222;2023-10-19T01:56:30;97616.31;;;17.95;75.25
70916;BME280;58557;50.982;-3.222;2023-10-19T01:58:55;97616.23;;;17.42;76.02
70916;BME280;58557;50.982;-3.222;2023-10-19T02:01:21;97613.84;;;17.62;75.06
70916;BME280;58557;50.982;-3.222;2023-10-19T02:03:47;97601.64;;;17.24;77.86
70916;BME280;58557;50.982;-3.222;2023-10-19T02:06:13;97602.17;;;17.22;77.70
70916;BME280;58557;50.982;-3.222;2023-10-19T02:08:37;97595.12;;;17.16;78.97
70916;BME280;58557;50.982;-3.222;2023-10-19T02:11:02;97595.22;;;17.69;76.26
70916;BME280;58557;50.982;-3.222;2023-10-19T02:13:27;97587.20;;;17.42;78.15
70916;BME280;58557;50.982;-3.222;2023-10-19T02:15:53;97581.31;;;17.77;76.89
70916;BME280;58557;50.982;-3.222;2023-10-19T02:18:18;97582.66;;;18.45;74.60
70916;BME280;58557;50.982;-3.222;2023-10-19T02:20:43;97577.66;;;18.27;75.47
70916;BME280;58557;50.982;-3.222;2023-10-19T02:23:09;97558.91;;;17.86;76.53
70916;BME280;58557;50.982;-3.222;2023-10-19T02:25:34;97558.60;;;18.25;75.93
70916;BME280;58557;50.982;-3.222;2023-10-19T02:27:59;97550.18;;;17.95;76.55
70916;BME280;58557;50.982;-3.222;2023-10-19T02:30:25;97542.89;;;17.71;77.34
70916;BME280;58557;50.982;-3.222;2023-10-19T02:32:50;97540.38;;;17.10;79.11
70916;BME280;58557;50.982;-3.222;2023-10-19T02:35:16;97533.83;;;17.18;78.14
70916;BME280;58557;50.982;-3.222;2023-10-19T02:37:41;97526.98;;;17.43;78.21
70916;BME280;58557;50.982;-3.222;2023-10-19T02:40:07;97525.45;;;17.93;78.73
70916;BME280;58557;50.982;-3.222;2023-10-19T02:42:31;97517.20;;;17.57;79.36
70916;BME280;58557;50.982;-3.222;2023-10-19T02:44:57;97508.19;;;17.39;78.67
70916;BME280;58557;50.982;-3.222;2023-10-19T02:47:22;97508.12;;;17.69;77.52
70916;BME280;58557;50.982;-3.222;2023-10-19T02:49:48;97494.26;;;17.74;78.32
70916;BME280;58557;50.982;-3.222;2023-10-19T02:52:13;97498.54;;;18.11;77.32
70916;BME280;58557;50.982;-3.222;2023-10-19T02:54:38;97497.40;;;17.63;79.23
70916;BME280;58557;50.982;-3.222;2023-10-19T02:57:04;97489.50;;;17.88;77.99
70916;BME280;58557;50.982;-3.222;2023-10-19T02:59:29;97481.35;;;16.73;82.61
70916;BME280;58557;50.982;-3.222;2023-10-19T03:01:56;97482.01;;;16.43;83.44
70916;BME280;58557;50.982;-3.222;2023-10-19T03:04:20;97481.70;;;17.08;81.59
70916;BME280;58557;50.982;-3.222;2023-10-19T03:06:46;97479.20;;;17.03;81.03
70916;BME280;58557;50.982;-3.222;2023-10-19T03:09:11;97469.46;;;17.66;77.45
70916;BME280;58557;50.982;-3.222;2023-10-19T03:11:37;97467.65;;;16.81;81.29
70916;BME280;58557;50.982;-3.222;2023-10-19T03:14:02;97463.74;;;17.12;79.86
70916;BME280;58557;50.982;-3.222;2023-10-19T03:16:28;97466.25;;;15.96;83.09
70916;BME280;58557;50.982;-3.222;2023-10-19T03:18:54;97457.82;;;15.49;84.20
70916;BME280;58557;50.982;-3.222;2023-10-19T03:21:20;97452.21;;;15.61;85.60
70916;BME280;58557;50.982;-3.222;2023-10-19T03:23:45;97455.47;;;15.90;84.22
70916;BME280;58557;50.982;-3.222;2023-10-19T03:26:11;97446.05;;;16.72;81.00
70916;BME280;58557;50.982;-3.222;2023-10-19T03:28:36;97453.50;;;15.60;84.30
70916;BME280;58557;50.982;-3.222;2023-10-19T03:31:02;97448.81;;;15.72;84.71
70916;BME280;58557;50.982;-3.222;2023-10-19T03:33:28;97450.29;;;16.18;82.95
70916;BME280;58557;50.982;-3.222;2023-10-19T03:35:53;97453.44;;;15.96;83.18
70916;BME280;58557;50.982;-3.222;2023-10-19T03:38:18;97448.53;;;15.93;83.45
70916;BME280;58557;50.982;-3.222;2023-10-19T03:40:44;97439.45;;;16.53;80.58
70916;BME280;58557;50.982;-3.222;2023-10-19T03:43:09;97446.06;;;16.52;82.25
70916;BME280;58557;50.982;-3.222;2023-10-19T03:45:35;97443.23;;;16.70;80.90
70916;BME280;58557;50.982;-3.222;2023-10-19T03:48:01;97437.33;;;16.32;81.88
70916;BME280;58557;50.982;-3.222;2023-10-19T03:50:26;97426.14;;;16.37;82.03
70916;BME280;58557;50.982;-3.222;2023-10-19T03:52:52;97425.40;;;16.39;82.02
70916;BME280;58557;50.982;-3.222;2023-10-19T03:55:17;97424.88;;;15.96;85.71
70916;BME280;58557;50.982;-3.222;2023-10-19T03:57:43;97425.56;;;16.05;85.38
70916;BME280;58557;50.982;-3.222;2023-10-19T04:00:09;97416.28;;;16.23;83.95
70916;BME280;58557;50.982;-3.222;2023-10-19T04:02:34;97426.26;;;16.85;80.09
70916;BME280;58557;50.982;-3.222;2023-10-19T04:04:59;97411.64;;;15.91;83.35
70916;BME280;58557;50.982;-3.222;2023-10-19T04:07:25;97423.36;;;15.81;85.77
70916;BME280;58557;50.982;-3.222;2023-10-19T04:09:52;97414.39;;;15.02;89.56
70916;BME280;58557;50.982;-3.222;2023-10-19T04:12:16;97417.72;;;15.76;86.45
70916;BME280;58557;50.982;-3.222;2023-10-19T04:14:41;97412.94;;;15.88;85.63
70916;BME280;58557;50.982;-3.222;2023-10-19T04:17:07;97412.71;;;15.88;85.43
70916;BME280;58557;50.982;-3.222;2023-10-19T04:19:32;97409.31;;;16.18;84.45
70916;BME280;58557;50.982;-3.222;2023-10-19T04:21:58;97403.14;;;15.86;84.94
70916;BME280;58557;50.982;-3.222;2023-10-19T04:24:23;97405.01;;;15.35;86.40
70916;BME280;58557;50.982;-3.222;2023-10-19T04:26:49;97403.50;;;15.34;87.78
70916;BME280;58557;50.982;-3.222;2023-10-19T04:29:14;97400.10;;;16.08;84.54
70916;BME280;58557;50.982;-3.222;2023-10-19T04:31:40;97413.69;;;15.75;84.98
70916;BME280;58557;50.982;-3.222;2023-10-19T04:34:06;97414.65;;;15.31;86.84
70916;BME280;58557;50.982;-3.222;2023-10-19T04:36:31;97414.04;;;16.05;84.71
70916;BME280;58557;50.982;-3.222;2023-10-19T04:38:57;97416.65;;;16.17;83.11
70916;BME280;58557;50.982;-3.222;2023-10-19T04:41:22;97419.73;;;16.67;81.05
70916;BME280;58557;50.982;-3.222;2023-10-19T04:43:48;97417.52;;;16.54;81.27
70916;BME280;58557;50.982;-3.222;2023-10-19T04:46:13;97416.40;;;16.19;81.79
70916;BME280;58557;50.982;-3.222;2023-10-19T04:48:41;97414.46;;;16.22;81.02
70916;BME280;58557;50.982;-3.222;2023-10-19T04:51:04;97411.61;;;16.25;81.09
70916;BME280;58557;50.982;-3.222;2023-10-19T04:53:31;97412.18;;;16.58;79.03
70916;BME280;58557;50.982;-3.222;2023-10-19T04:55:55;97407.97;;;16.46;79.19
70916;BME280;58557;50.982;-3.222;2023-10-19T04:58:21;97404.01;;;16.30;79.27
70916;BME280;58557;50.982;-3.222;2023-10-19T05:00:46;97404.46;;;16.93;78.48
70916;BME280;58557;50.982;-3.222;2023-10-19T05:03:12;97407.69;;;17.12;78.20
70916;BME280;58557;50.982;-3.222;2023-10-19T05:05:38;97410.98;;;16.67;79.99
70916;BME280;58557;50.982;-3.222;2023-10-19T05:08:04;97408.17;;;16.18;81.88
70916;BME280;58557;50.982;-3.222;2023-10-19T05:10:29;97410.01;;;17.06;78.18
70916;BME280;58557;50.982;-3.222;2023-10-19T05:12:54;97407.76;;;17.64;75.98
70916;BME280;58557;50.982;-3.222;2023-10-19T05:15:19;97409.81;;;16.70;77.59
70916;BME280;58557;50.982;-3.222;2023-10-19T05:17:44;97409.40;;;17.05;76.24
70916;BME280;58557;50.982;-3.222;2023-10-19T05:20:11;97409.72;;;17.35;75.05
70916;BME280;58557;50.982;-3.222;2023-10-19T05:22:35;97403.91;;;17.58;74.92
70916;BME280;58557;50.982;-3.222;2023-10-19T05:25:00;97405.55;;;17.27;74.44
70916;BME280;58557;50.982;-3.222;2023-10-19T05:27:26;97407.17;;;16.40;78.11
70916;BME280;58557;50.982;-3.222;2023-10-19T05:29:51;97409.68;;;17.34;76.05
70916;BME280;58557;50.982;-3.222;2023-10-19T05:32:16;97408.21;;;17.31;75.15
70916;BME280;58557;50.982;-3.222;2023-10-19T05:34:41;97404.42;;;16.68;77.80
70916;BME280;58557;50.982;-3.222;2023-10-19T05:37:07;97399.94;;;15.77;80.00
70916;BME280;58557;50.982;-3.222;2023-10-19T05:39:32;97400.73;;;16.43;78.20
70916;BME280;58557;50.982;-3.222;2023-10-19T05:41:57;97403.37;;;16.48;78.71
70916;BME280;58557;50.982;-3.222;2023-10-19T05:44:23;97399.96;;;17.09;75.86
70916;BME280;58557;50.982;-3.222;2023-10-19T05:46:48;97396.70;;;17.79;73.34
70916;BME280;58557;50.982;-3.222;2023-10-19T05:49:14;97394.97;;;17.36;72.49
70916;BME280;58557;50.982;-3.222;2023-10-19T05:51:39;97397.84;;;17.03;73.74
70916;BME280;58557;50.982;-3.222;2023-10-19T05:54:04;97391.58;;;17.61;73.93
70916;BME280;58557;50.982;-3.222;2023-10-19T05:56:30;97386.58;;;17.35;73.98
70916;BME280;58557;50.982;-3.222;2023-10-19T05:58:55;97387.51;;;16.73;75.79
70916;BME280;58557;50.982;-3.222;2023-10-19T06:01:20;97386.98;;;17.32;75.32
70916;BME280;58557;50.982;-3.222;2023-10-19T06:03:46;97379.67;;;17.51;73.82
70916;BME280;58557;50.982;-3.222;2023-10-19T06:06:11;97381.50;;;18.00;71.37
70916;BME280;58557;50.982;-3.222;2023-10-19T06:08:37;97387.21;;;17.61;72.83
70916;BME280;58557;50.982;-3.222;2023-10-19T06:11:02;97386.61;;;18.45;70.12
70916;BME280;58557;50.982;-3.222;2023-10-19T06:13:27;97380.84;;;17.90;70.86
70916;BME280;58557;50.982;-3.222;2023-10-19T06:15:52;97379.38;;;16.94;75.47
70916;BME280;58557;50.982;-3.222;2023-10-19T06:18:17;97379.23;;;16.84;75.95
70916;BME280;58557;50.982;-3.222;2023-10-19T06:20:43;97378.57;;;16.99;75.77
70916;BME280;58557;50.982;-3.222;2023-10-19T06:23:08;97371.36;;;16.63;74.48
70916;BME280;58557;50.982;-3.222;2023-10-19T06:25:34;97375.42;;;16.81;74.06
70916;BME280;58557;50.982;-3.222;2023-10-19T06:27:59;97368.99;;;16.75;75.09
70916;BME280;58557;50.982;-3.222;2023-10-19T06:30:25;97377.76;;;16.65;74.86
70916;BME280;58557;50.982;-3.222;2023-10-19T06:32:51;97380.94;;;17.19;72.40
70916;BME280;58557;50.982;-3.222;2023-10-19T06:35:16;97383.55;;;17.12;72.13
70916;BME280;58557;50.982;-3.222;2023-10-19T06:37:43;97375.66;;;17.21;72.05
70916;BME280;58557;50.982;-3.222;2023-10-19T06:40:08;97376.54;;;17.78;70.81
70916;BME280;58557;50.982;-3.222;2023-10-19T06:42:33;97379.92;;;17.39;71.51
70916;BME280;58557;50.982;-3.222;2023-10-19T06:44:58;97373.71;;;17.07;72.94
70916;BME280;58557;50.982;-3.222;2023-10-19T06:47:24;97379.22;;;17.00;73.20
70916;BME280;58557;50.982;-3.222;2023-10-19T06:49:49;97372.63;;;16.73;75.52
70916;BME280;58557;50.982;-3.222;2023-10-19T06:52:14;97377.98;;;17.12;73.57
70916;BME280;58557;50.982;-3.222;2023-10-19T06:54:40;97378.96;;;17.00;72.71
70916;BME280;58557;50.982;-3.222;2023-10-19T06:57:06;97384.87;;;16.56;75.90
70916;BME280;58557;50.982;-3.222;2023-10-19T06:59:31;97381.68;;;16.35;76.74
70916;BME280;58557;50.982;-3.222;2023-10-19T07:01:57;97376.55;;;16.60;77.10
70916;BME280;58557;50.982;-3.222;2023-10-19T07:04:22;97381.19;;;17.07;75.11
70916;BME280;58557;50.982;-3.222;2023-10-19T07:06:47;97381.02;;;17.52;72.76
70916;BME280;58557;50.982;-3.222;2023-10-19T07:09:13;97375.77;;;17.29;72.44
70916;BME280;58557;50.982;-3.222;2023-10-19T07:11:38;97374.10;;;17.04;73.23
70916;BME280;58557;50.982;-3.222;2023-10-19T07:14:03;97375.14;;;17.23;73.98
70916;BME280;58557;50.982;-3.222;2023-10-19T07:16:29;97381.50;;;17.45;73.63
70916;BME280;58557;50.982;-3.222;2023-10-19T07:18:54;97375.87;;;17.14;74.80
70916;BME280;58557;50.982;-3.222;2023-10-19T07:21:20;97373.95;;;17.52;72.44
70916;BME280;58557;50.982;-3.222;2023-10-19T07:23:45;97375.89;;;17.26;72.39
70916;BME280;58557;50.982;-3.222;2023-10-19T07:26:11;97379.24;;;16.84;74.36
70916;BME280;58557;50.982;-3.222;2023-10-19T07:28:37;97376.37;;;16.83;75.66
70916;BME280;58557;50.982;-3.222;2023-10-19T07:31:02;97375.20;;;17.57;72.21
70916;BME280;58557;50.982;-3.222;2023-10-19T07:33:27;97374.98;;;17.77;71.41
70916;BME280;58557;50.982;-3.222;2023-10-19T07:35:52;97377.68;;;17.69;72.57
70916;BME280;58557;50.982;-3.222;2023-10-19T07:38:17;97376.84;;;18.63;69.21
70916;BME280;58557;50.982;-3.222;2023-10-19T07:40:43;97379.78;;;18.66;68.06
70916;BME280;58557;50.982;-3.222;2023-10-19T07:43:08;97369.70;;;19.13;66.19
70916;BME280;58557;50.982;-3.222;2023-10-19T07:45:33;97378.87;;;18.13;68.85
70916;BME280;58557;50.982;-3.222;2023-10-19T07:47:59;97380.61;;;18.30;68.26
70916;BME280;58557;50.982;-3.222;2023-10-19T07:50:24;97376.51;;;18.86;66.31
70916;BME280;58557;50.982;-3.222;2023-10-19T07:52:51;97370.12;;;18.94;65.20
70916;BME280;58557;50.982;-3.222;2023-10-19T07:55:16;97368.00;;;19.26;64.74
70916;BME280;58557;50.982;-3.222;2023-10-19T07:57:40;97376.84;;;18.88;67.43
70916;BME280;58557;50.982;-3.222;2023-10-19T08:00:08;97381.46;;;19.06;66.63
70916;BME280;58557;50.982;-3.222;2023-10-19T08:02:31;97380.05;;;18.60;67.12
70916;BME280;58557;50.982;-3.222;2023-10-19T08:04:57;97377.89;;;18.32;68.24
70916;BME280;58557;50.982;-3.222;2023-10-19T08:07:22;97366.66;;;19.00;66.53
70916;BME280;58557;50.982;-3.222;2023-10-19T08:09:47;97376.72;;;17.95;69.45
70916;BME280;58557;50.982;-3.222;2023-10-19T08:12:13;97372.40;;;18.19;69.90
70916;BME280;58557;50.982;-3.222;2023-10-19T08:14:39;97371.42;;;18.67;69.34
70916;BME280;58557;50.982;-3.222;2023-10-19T08:17:04;97365.52;;;19.61;67.67
70916;BME280;58557;50.982;-3.222;2023-10-19T08:19:29;97364.52;;;18.85;69.27
70916;BME280;58557;50.982;-3.222;2023-10-19T08:21:55;97360.66;;;18.92;69.57
70916;BME280;58557;50.982;-3.222;2023-10-19T08:24:20;97365.05;;;19.11;67.43
70916;BME280;58557;50.982;-3.222;2023-10-19T08:26:45;97362.84;;;19.23;68.21
70916;BME280;58557;50.982;-3.222;2023-10-19T08:29:11;97366.10;;;18.08;72.21
70916;BME280;58557;50.982;-3.222;2023-10-19T08:31:36;97363.97;;;18.21;72.56
70916;BME280;58557;50.982;-3.222;2023-10-19T08:34:01;97361.78;;;17.16;75.97
70916;BME280;58557;50.982;-3.222;2023-10-19T08:36:27;97359.94;;;17.37;75.89
70916;BME280;58557;50.982;-3.222;2023-10-19T08:38:52;97356.99;;;18.28;73.02
70916;BME280;58557;50.982;-3.222;2023-10-19T08:41:17;97350.17;;;17.96;72.35
70916;BME280;58557;50.982;-3.222;2023-10-19T08:43:43;97347.34;;;18.35;71.05
70916;BME280;58557;50.982;-3.222;2023-10-19T08:46:10;97341.55;;;18.34;71.76
70916;BME280;58557;50.982;-3.222;2023-10-19T08:48:34;97347.41;;;17.82;74.07
70916;BME280;58557;50.982;-3.222;2023-10-19T08:51:00;97339.40;;;17.71;75.87
70916;BME280;58557;50.982;-3.222;2023-10-19T08:53:26;97340.87;;;17.56;75.24
70916;BME280;58557;50.982;-3.222;2023-10-19T08:55:50;97338.04;;;18.50;72.98
70916;BME280;58557;50.982;-3.222;2023-10-19T08:58:17;97336.32;;;19.36;70.78
70916;BME280;58557;50.982;-3.222;2023-10-19T09:00:45;97337.69;;;18.60;71.14
70916;BME280;58557;50.982;-3.222;2023-10-19T09:03:07;97335.59;;;19.03;71.93
70916;BME280;58557;50.982;-3.222;2023-10-19T09:05:33;97338.29;;;18.34;72.89
70916;BME280;58557;50.982;-3.222;2023-10-19T09:07:58;97332.79;;;18.72;73.03
70916;BME280;58557;50.982;-3.222;2023-10-19T09:10:25;97340.49;;;18.36;74.66
70916;BME280;58557;50.982;-3.222;2023-10-19T09:15:21;97328.51;;;17.49;79.56
70916;BME280;58557;50.982;-3.222;2023-10-19T09:17:40;97327.35;;;17.22;78.79
70916;BME280;58557;50.982;-3.222;2023-10-19T09:20:07;97328.20;;;17.23;81.16
70916;BME280;58557;50.982;-3.222;2023-10-19T09:22:35;97325.21;;;17.36;80.71
70916;BME280;58557;50.982;-3.222;2023-10-19T09:24:55;97338.27;;;17.54;79.31
70916;BME280;58557;50.982;-3.222;2023-10-19T09:27:20;97321.15;;;16.75;79.98
70916;BME280;58557;50.982;-3.222;2023-10-19T09:29:47;97326.15;;;16.84;81.18
70916;BME280;58557;50.982;-3.222;2023-10-19T09:32:11;97321.29;;;17.83;78.30
70916;BME280;58557;50.982;-3.222;2023-10-19T09:34:38;97321.05;;;18.44;75.96
70916;BME280;58557;50.982;-3.222;2023-10-19T09:37:03;97320.14;;;18.80;74.02
70916;BME280;58557;50.982;-3.222;2023-10-19T09:39:28;97317.98;;;19.11;72.58
70916;BME280;58557;50.982;-3.222;2023-10-19T09:41:54;97329.19;;;19.67;70.48
70916;BME280;58557;50.982;-3.222;2023-10-19T09:44:21;97322.87;;;19.19;70.64
70916;BME280;58557;50.982;-3.222;2023-10-19T09:46:45;97321.49;;;18.69;72.46
70916;BME280;58557;50.982;-3.222;2023-10-19T09:49:10;97322.21;;;18.72;72.69
70916;BME280;58557;50.982;-3.222;2023-10-19T09:51:35;97320.88;;;18.71;72.33
70916;BME280;58557;50.982;-3.222;2023-10-19T09:54:04;97329.55;;;18.33;73.24
70916;BME280;58557;50.982;-3.222;2023-10-19T09:56:31;97326.32;;;18.60;72.19
70916;BME280;58557;50.982;-3.222;2023-10-19T09:58:54;97322.02;;;18.25;75.76
70916;BME280;58557;50.982;-3.222;2023-10-19T10:01:17;97316.17;;;18.80;77.28
70916;BME280;58557;50.982;-3.222;2023-10-19T10:03:45;97317.30;;;18.68;75.61
70916;BME280;58557;50.982;-3.222;2023-10-19T10:06:08;97321.61;;;17.79;77.88
70916;BME280;58557;50.982;-3.222;2023-10-19T10:08:34;97321.33;;;17.97;78.65
70916;BME280;58557;50.982;-3.222;2023-10-19T10:10:58;97324.33;;;18.54;76.97
70916;BME280;58557;50.982;-3.222;2023-10-19T10:13:36;97317.87;;;18.50;78.73
70916;BME280;58557;50.982;-3.222;2023-10-19T10:15:49;97324.29;;;18.42;79.23
70916;BME280;58557;50.982;-3.222;2023-10-19T10:18:15;97318.14;;;18.59;79.81
70916;BME280;58557;50.982;-3.222;2023-10-19T10:20:40;97316.60;;;17.93;79.95
70916;BME280;58557;50.982;-3.222;2023-10-19T10:23:17;97315.93;;;17.96;79.95
70916;BME280;58557;50.982;-3.222;2023-10-19T10:25:30;97314.69;;;18.73;77.87
70916;BME280;58557;50.982;-3.222;2023-10-19T10:27:56;97320.65;;;18.76;74.85
70916;BME280;58557;50.982;-3.222;2023-10-19T10:30:21;97315.16;;;18.82;74.53
70916;BME280;58557;50.982;-3.222;2023-10-19T10:32:49;97314.78;;;19.26;72.17
70916;BME280;58557;50.982;-3.222;2023-10-19T10:37:37;97321.88;;;18.14;75.08
70916;BME280;58557;50.982;-3.222;2023-10-19T10:40:02;97311.98;;;18.81;74.23
70916;BME280;58557;50.982;-3.222;2023-10-19T10:42:28;97310.75;;;19.21;72.97
70916;BME280;58557;50.982;-3.222;2023-10-19T10:44:53;97315.64;;;19.41;72.16
70916;BME280;58557;50.982;-3.222;2023-10-19T10:47:20;97310.90;;;19.58;72.39
70916;BME280;58557;50.982;-3.222;2023-10-19T10:49:49;97304.44;;;19.20;72.49
70916;BME280;58557;50.982;-3.222;2023-10-19T10:52:10;97313.14;;;18.28;74.87
70916;BME280;58557;50.982;-3.222;2023-10-19T10:54:36;97312.44;;;18.44;74.12
70916;BME280;58557;50.982;-3.222;2023-10-19T10:57:01;97315.84;;;17.99;76.34
70916;BME280;58557;50.982;-3.222;2023-10-19T10:59:27;97307.52;;;17.62;76.94
70916;BME280;58557;50.982;-3.222;2023-10-19T11:01:52;97305.60;;;18.56;76.71
70916;BME280;58557;50.982;-3.222;2023-10-19T11:04:18;97297.86;;;19.39;74.24
70916;BME280;58557;50.982;-3.222;2023-10-19T11:06:48;97289.71;;;19.08;71.83
70916;BME280;58557;50.982;-3.222;2023-10-19T11:09:10;97293.20;;;19.57;71.08
70916;BME280;58557;50.982;-3.222;2023-10-19T11:11:37;97280.82;;;19.04;72.46
70916;BME280;58557;50.982;-3.222;2023-10-19T11:14:09;97278.09;;;18.52;74.81
70916;BME280;58557;50.982;-3.222;2023-10-19T11:16:26;97282.30;;;18.45;76.22
70916;BME280;58557;50.982;-3.222;2023-10-19T11:18:52;97282.90;;;18.95;74.76
70916;BME280;58557;50.982;-3.222;2023-10-19T11:21:17;97285.59;;;19.30;73.07
70916;BME280;58557;50.982;-3.222;2023-10-19T11:23:44;97291.83;;;19.10;73.80
70916;BME280;58557;50.982;-3.222;2023-10-19T11:26:09;97301.76;;;18.21;77.06
70916;BME280;58557;50.982;-3.222;2023-10-19T11:28:34;97289.87;;;17.99;77.73
70916;BME280;58557;50.982;-3.222;2023-10-19T11:31:11;97290.54;;;17.85;78.59
70916;BME280;58557;50.982;-3.222;2023-10-19T11:33:25;97294.89;;;17.64;79.98
70916;BME280;58557;50.982;-3.222;2023-10-19T11:35:50;97295.51;;;18.19;78.35
70916;BME280;58557;50.982;-3.222;2023-10-19T11:38:16;97291.28;;;18.58;77.41
70916;BME280;58557;50.982;-3.222;2023-10-19T11:40:42;97291.25;;;18.01;78.48
70916;BME280;58557;50.982;-3.222;2023-10-19T11:43:07;97285.27;;;17.69;78.02
70916;BME280;58557;50.982;-3.222;2023-10-19T11:45:32;97287.19;;;18.00;77.87
70916;BME280;58557;50.982;-3.222;2023-10-19T11:47:58;97294.23;;;18.04;75.75
70916;BME280;58557;50.982;-3.222;2023-10-19T11:50:24;97295.88;;;18.05;75.59
70916;BME280;58557;50.982;-3.222;2023-10-19T11:52:49;97293.20;;;17.63;77.01
70916;BME280;58557;50.982;-3.222;2023-10-19T11:55:15;97294.79;;;18.40;75.19
70916;BME280;58557;50.982;-3.222;2023-10-19T11:57:40;97292.68;;;18.12;74.91
70916;BME280;58557;50.982;-3.222;2023-10-19T12:00:06;97279.92;;;18.82;73.92
70916;BME280;58557;50.982;-3.222;2023-10-19T12:02:30;97276.42;;;18.16;75.70
70916;BME280;58557;50.982;-3.222;2023-10-19T12:04:55;97273.73;;;17.94;77.62
70916;BME280;58557;50.982;-3.222;2023-10-19T12:07:21;97278.01;;;18.19;75.79
70916;BME280;58557;50.982;-3.222;2023-10-19T12:09:46;97261.91;;;18.75;75.04
70916;BME280;58557;50.982;-3.222;2023-10-19T12:12:12;97261.40;;;18.26;76.82
70916;BME280;58557;50.982;-3.222;2023-10-19T12:14:37;97264.33;;;17.55;76.90
70916;BME280;58557;50.982;-3.222;2023-10-19T12:17:03;97256.37;;;17.61;77.88
70916;BME280;58557;50.982;-3.222;2023-10-19T12:19:29;97260.55;;;18.05;77.07
70916;BME280;58557;50.982;-3.222;2023-10-19T12:21:54;97257.26;;;17.43;78.77
70916;BME280;58557;50.982;-3.222;2023-10-19T12:24:19;97253.38;;;17.67;77.76
70916;BME280;58557;50.982;-3.222;2023-10-19T12:26:44;97251.01;;;18.10;77.02
70916;BME280;58557;50.982;-3.222;2023-10-19T12:29:10;97250.22;;;18.39;76.90
70916;BME280;58557;50.982;-3.222;2023-10-19T12:31:36;97249.51;;;18.27;75.68
70916;BME280;58557;50.982;-3.222;2023-10-19T12:34:01;97251.31;;;18.28;75.75
70916;BME280;58557;50.982;-3.222;2023-10-19T12:36:27;97242.22;;;18.73;72.66
70916;BME280;58557;50.982;-3.222;2023-10-19T12:38:52;97241.18;;;18.75;73.05
70916;BME280;58557;50.982;-3.222;2023-10-19T12:41:18;97239.03;;;18.94;72.67
70916;BME280;58557;50.982;-3.222;2023-10-19T12:43:43;97231.75;;;18.83;69.46